Sheridan, Louisiana
Current Conditions -  °F | °C
As of 9:53 AM on Sunday 21 Dec 2014 (Local Time) from KMCB Reporting Station
Clear Clear  
Wind Chill: 47°   Ceiling: Unl
Heat Index: 47°   Visibility: 9mi
Dew Point: 43°   Wind: 3mph
Humidity: 86%   Direction: NA
Pressure: 30.13"   Gusts: NA
Location:  30.8503°N, 90.0561°W
Report Text: KMCB 211553Z AUTO VRB03KT 9SM CLR 08/06 A3013 RMK AO2 SLP203 T00830061
Loading
Personal Weather Stations






























Interactive Weather Map New forecast layout! Learn more

10-Day Weather Forecast

Advertisements
Track Severe Weather on mobile